createdAt,value
2018-12-26T00:01:07.583Z,18.50
2018-12-26T00:03:35.880Z,18.57
2018-12-26T00:06:04.441Z,19.87
2018-12-26T00:08:32.736Z,19.27
2018-12-26T00:11:01.023Z,16.93
2018-12-26T00:13:29.317Z,17.47
2018-12-26T00:15:57.597Z,17.83
2018-12-26T00:18:26.024Z,16.77
2018-12-26T00:20:54.265Z,17.13
2018-12-26T00:23:22.557Z,17.07
2018-12-26T00:25:50.854Z,17.63
2018-12-26T00:28:19.135Z,17.33
2018-12-26T00:30:47.432Z,16.70
2018-12-26T00:33:15.991Z,17.53
2018-12-26T00:35:44.594Z,18.07
2018-12-26T00:38:12.862Z,18.27
2018-12-26T00:40:41.156Z,17.03
2018-12-26T00:43:09.436Z,16.97
2018-12-26T00:45:38.087Z,17.27
2018-12-26T00:48:06.379Z,17.03
2018-12-26T00:50:34.948Z,16.57
2018-12-26T00:53:03.533Z,16.67
2018-12-26T00:55:32.118Z,15.30
2018-12-26T00:58:00.395Z,15.47
2018-12-26T01:00:28.697Z,16.03
2018-12-26T01:02:56.979Z,16.47
2018-12-26T01:05:25.268Z,16.13
2018-12-26T01:07:53.804Z,15.17
2018-12-26T01:10:23.087Z,16.40
2018-12-26T01:12:51.688Z,17.77
2018-12-26T01:15:19.980Z,16.37
2018-12-26T01:17:48.273Z,17.23
2018-12-26T01:20:16.562Z,17.17
2018-12-26T01:22:44.854Z,16.03
2018-12-26T01:25:13.137Z,16.23
2018-12-26T01:27:41.433Z,14.97
2018-12-26T01:30:09.719Z,16.50
2018-12-26T01:32:38.313Z,16.50
2018-12-26T01:35:06.615Z,14.43
2018-12-26T01:37:34.908Z,14.80
2018-12-26T01:40:03.462Z,16.37
2018-12-26T01:42:32.056Z,15.47
2018-12-26T01:45:00.707Z,16.53
2018-12-26T01:47:28.981Z,15.63
2018-12-26T01:49:57.263Z,15.73
2018-12-26T01:52:25.871Z,17.53
2018-12-26T01:54:54.447Z,16.40
2018-12-26T01:57:22.745Z,16.57
2018-12-26T01:59:51.303Z,15.70
2018-12-26T02:02:19.610Z,14.83
2018-12-26T02:04:48.181Z,15.63
2018-12-26T02:07:16.456Z,15.27
2018-12-26T02:09:44.754Z,16.17
2018-12-26T02:12:13.033Z,15.23
2018-12-26T02:14:41.794Z,15.37
2018-12-26T02:17:10.079Z,15.07
2018-12-26T02:19:38.839Z,14.83
2018-12-26T02:22:07.126Z,16.73
2018-12-26T02:24:35.425Z,15.57
2018-12-26T02:27:03.705Z,14.87
2018-12-26T02:29:32.004Z,14.60
2018-12-26T02:32:00.287Z,15.07
2018-12-26T02:34:28.578Z,15.73
2018-12-26T02:36:56.868Z,14.60
2018-12-26T02:39:25.177Z,15.57
2018-12-26T02:41:53.465Z,15.00
2018-12-26T02:44:21.945Z,13.90
2018-12-26T02:46:50.329Z,14.27
2018-12-26T02:49:18.871Z,14.33
2018-12-26T02:51:47.156Z,14.60
2018-12-26T02:54:15.438Z,13.50
2018-12-26T02:56:47.840Z,13.87
2018-12-26T02:59:13.817Z,14.10
2018-12-26T03:01:42.412Z,14.23
2018-12-26T03:04:10.699Z,13.27
2018-12-26T03:06:39.273Z,13.90
2018-12-26T03:09:07.819Z,14.23
2018-12-26T03:11:36.116Z,14.83
2018-12-26T03:14:04.715Z,14.30
2018-12-26T03:16:33.078Z,14.30
2018-12-26T03:19:01.356Z,14.10
2018-12-26T03:21:29.954Z,15.27
2018-12-26T03:23:58.243Z,15.10
2018-12-26T03:26:26.539Z,15.87
2018-12-26T03:28:55.087Z,15.50
2018-12-26T03:31:23.412Z,16.03
2018-12-26T03:33:51.951Z,14.93
2018-12-26T03:36:20.251Z,14.27
2018-12-26T03:38:48.536Z,16.23
2018-12-26T03:41:16.904Z,15.50
2018-12-26T03:43:45.563Z,14.83
2018-12-26T03:46:15.172Z,14.10
2018-12-26T03:48:43.452Z,14.03
2018-12-26T03:51:11.761Z,14.20
2018-12-26T03:53:40.100Z,12.90
2018-12-26T03:56:08.470Z,14.17
2018-12-26T03:58:36.822Z,14.37
2018-12-26T04:01:05.103Z,13.47
2018-12-26T04:03:33.396Z,14.83
2018-12-26T04:06:01.758Z,13.73
2018-12-26T04:08:30.063Z,13.63
2018-12-26T04:10:58.433Z,14.53
2018-12-26T04:13:26.787Z,13.70
2018-12-26T04:15:55.164Z,12.73
2018-12-26T04:18:23.441Z,13.03
2018-12-26T04:20:51.797Z,12.47
2018-12-26T04:23:20.451Z,14.17
2018-12-26T04:25:48.801Z,12.40
2018-12-26T04:28:17.110Z,13.73
2018-12-26T04:30:45.395Z,12.23
2018-12-26T04:33:13.679Z,13.23
2018-12-26T04:35:41.981Z,13.33
2018-12-26T04:38:10.276Z,13.30
2018-12-26T04:40:38.590Z,13.00
2018-12-26T04:43:06.875Z,12.70
2018-12-26T04:45:35.154Z,12.67
2018-12-26T04:48:03.457Z,13.63
2018-12-26T04:50:32.000Z,12.60
2018-12-26T04:53:00.311Z,12.83
2018-12-26T04:55:28.591Z,13.93
2018-12-26T04:57:56.890Z,12.63
2018-12-26T05:00:25.514Z,13.03
2018-12-26T05:02:53.820Z,12.67
2018-12-26T05:05:22.103Z,12.77
2018-12-26T05:07:50.390Z,13.33
2018-12-26T05:10:19.046Z,13.13
2018-12-26T05:12:47.614Z,13.43
2018-12-26T05:15:15.989Z,13.23
2018-12-26T05:17:44.279Z,12.60
2018-12-26T05:20:12.650Z,13.10
2018-12-26T05:22:40.934Z,14.27
2018-12-26T05:25:09.234Z,13.53
2018-12-26T05:27:37.530Z,14.20
2018-12-26T05:30:07.173Z,14.07
2018-12-26T05:32:35.770Z,12.93
2018-12-26T05:35:04.325Z,12.93
2018-12-26T05:37:32.627Z,13.50
2018-12-26T05:40:00.919Z,13.60
2018-12-26T05:42:29.211Z,13.33
2018-12-26T05:44:57.511Z,12.90
2018-12-26T05:47:25.793Z,13.93
2018-12-26T05:49:54.096Z,13.90
2018-12-26T05:52:22.380Z,12.00
2018-12-26T05:54:50.687Z,12.67
2018-12-26T05:57:19.254Z,12.83
2018-12-26T05:59:47.835Z,14.00
2018-12-26T06:02:16.138Z,13.47
2018-12-26T06:04:44.421Z,13.40
2018-12-26T06:07:12.731Z,14.33
2018-12-26T06:09:41.350Z,13.50
2018-12-26T06:12:11.504Z,13.43
2018-12-26T06:14:40.161Z,13.40
2018-12-26T06:17:08.441Z,13.73
2018-12-26T06:19:37.035Z,12.97
2018-12-26T06:22:05.328Z,13.00
2018-12-26T06:24:33.639Z,13.57
2018-12-26T06:27:01.916Z,12.40
2018-12-26T06:29:30.319Z,13.23
2018-12-26T06:31:58.591Z,14.37
2018-12-26T06:34:27.187Z,13.07
2018-12-26T06:36:55.492Z,12.50
2018-12-26T06:39:24.069Z,11.93
2018-12-26T06:41:52.353Z,12.50
2018-12-26T06:44:20.658Z,12.43
2018-12-26T06:46:48.945Z,13.00
2018-12-26T06:49:17.565Z,12.47
2018-12-26T06:51:45.851Z,13.73
2018-12-26T06:54:14.163Z,12.40
2018-12-26T06:56:42.466Z,11.83
2018-12-26T06:59:10.744Z,12.07
2018-12-26T07:01:39.130Z,13.30
2018-12-26T07:04:07.482Z,12.90
2018-12-26T07:06:35.765Z,13.73
2018-12-26T07:09:05.704Z,12.83
2018-12-26T07:11:34.305Z,13.27
2018-12-26T07:14:02.617Z,14.80
2018-12-26T07:16:30.897Z,12.17
2018-12-26T07:18:59.188Z,13.33
2018-12-26T07:21:27.550Z,14.60
2018-12-26T07:23:55.855Z,14.60
2018-12-26T07:26:24.173Z,16.40
2018-12-26T07:28:52.755Z,14.27
2018-12-26T07:31:21.047Z,14.73
2018-12-26T07:33:49.346Z,15.07
2018-12-26T07:36:17.630Z,14.57
2018-12-26T07:38:45.940Z,15.63
2018-12-26T07:41:14.262Z,14.83
2018-12-26T07:43:47.081Z,15.37
2018-12-26T07:46:15.372Z,14.77
2018-12-26T07:48:43.980Z,13.93
2018-12-26T07:51:12.282Z,12.73
2018-12-26T07:53:40.566Z,15.20
2018-12-26T07:56:09.140Z,13.73
2018-12-26T07:58:37.426Z,13.80
2018-12-26T08:01:05.718Z,13.87
2018-12-26T08:03:34.016Z,15.57
2018-12-26T08:06:02.303Z,15.57
2018-12-26T08:08:30.928Z,14.77
2018-12-26T08:10:59.214Z,15.83
2018-12-26T08:13:27.520Z,15.23
2018-12-26T08:15:55.807Z,14.50
2018-12-26T08:18:24.089Z,14.30
2018-12-26T08:20:52.391Z,14.13
2018-12-26T08:23:20.683Z,15.47
2018-12-26T08:25:48.982Z,14.97
2018-12-26T08:28:17.264Z,15.47
2018-12-26T08:30:45.555Z,13.70
2018-12-26T08:33:13.838Z,15.07
2018-12-26T08:35:42.137Z,15.17
2018-12-26T08:38:10.423Z,15.07
2018-12-26T08:40:39.013Z,15.03
2018-12-26T08:43:07.301Z,15.47
2018-12-26T08:45:35.892Z,15.50
2018-12-26T08:48:04.174Z,15.90
2018-12-26T08:50:32.458Z,14.87
2018-12-26T08:53:00.755Z,14.10
2018-12-26T08:55:29.288Z,16.00
2018-12-26T08:57:57.879Z,14.70
2018-12-26T09:00:26.169Z,15.30
2018-12-26T09:02:54.450Z,14.30
2018-12-26T09:05:22.744Z,15.20
2018-12-26T09:07:51.024Z,15.33
2018-12-26T09:10:19.663Z,14.03
2018-12-26T09:12:47.943Z,15.53
2018-12-26T09:15:16.523Z,16.33
2018-12-26T09:17:44.835Z,15.33
2018-12-26T09:20:13.130Z,15.33
2018-12-26T09:22:41.411Z,14.93
2018-12-26T09:25:09.692Z,13.80
2018-12-26T09:27:38.075Z,14.83
2018-12-26T09:30:08.099Z,13.27
2018-12-26T09:32:36.380Z,13.03
2018-12-26T09:35:07.413Z,15.03
2018-12-26T09:37:35.822Z,18.40
2018-12-26T09:40:06.523Z,14.23
2018-12-26T09:42:34.807Z,14.07
2018-12-26T09:45:03.098Z,13.77
2018-12-26T09:47:31.383Z,13.50
2018-12-26T09:49:59.695Z,13.90
2018-12-26T09:52:27.966Z,15.37
2018-12-26T09:54:56.544Z,14.03
2018-12-26T09:57:25.108Z,13.90
2018-12-26T09:59:53.691Z,14.83
2018-12-26T10:02:22.048Z,12.97
2018-12-26T10:04:50.348Z,13.80
2018-12-26T10:07:18.665Z,13.10
2018-12-26T10:09:46.940Z,11.10
2018-12-26T10:12:15.221Z,11.50
2018-12-26T10:14:43.861Z,11.33
2018-12-26T10:17:12.142Z,11.83
2018-12-26T10:19:40.685Z,19.50
2018-12-26T10:22:09.306Z,12.77
2018-12-26T10:24:37.609Z,10.63
2018-12-26T10:27:05.896Z,10.10
2018-12-26T10:29:34.199Z,10.40
2018-12-26T10:32:02.484Z,11.37
2018-12-26T10:34:30.841Z,11.60
2018-12-26T10:36:59.213Z,11.57
2018-12-26T10:39:27.516Z,13.40
2018-12-26T10:41:55.796Z,10.47
2018-12-26T10:44:24.437Z,12.80
2018-12-26T10:46:53.010Z,13.60
2018-12-26T10:49:21.317Z,11.53
2018-12-26T10:51:49.608Z,11.70
2018-12-26T10:54:17.898Z,12.23
2018-12-26T10:56:46.186Z,11.90
2018-12-26T10:59:14.787Z,11.30
2018-12-26T11:01:43.123Z,11.90
2018-12-26T11:04:11.432Z,11.03
2018-12-26T11:06:39.722Z,11.20
2018-12-26T11:09:08.268Z,9.57
2018-12-26T11:11:36.888Z,10.43
2018-12-26T11:14:05.186Z,10.00
2018-12-26T11:16:33.793Z,9.90
2018-12-26T11:19:02.645Z,10.30
2018-12-26T11:21:30.947Z,10.23
2018-12-26T11:23:59.222Z,10.77
2018-12-26T11:26:27.534Z,10.60
2018-12-26T11:28:55.798Z,10.63
2018-12-26T11:31:24.423Z,10.60
2018-12-26T11:33:53.010Z,10.43
2018-12-26T11:36:21.303Z,9.83
2018-12-26T11:38:49.755Z,20.60
2018-12-26T11:41:18.048Z,9.73
2018-12-26T11:43:46.335Z,11.17
2018-12-26T11:46:14.901Z,10.43
2018-12-26T11:48:43.200Z,11.20
2018-12-26T11:51:11.494Z,12.37
2018-12-26T11:53:39.771Z,10.57
2018-12-26T11:56:08.078Z,10.27
2018-12-26T11:58:36.818Z,10.97
2018-12-26T12:01:05.201Z,10.70
2018-12-26T12:03:33.796Z,10.53
2018-12-26T12:06:02.173Z,9.60
2018-12-26T12:08:30.452Z,9.60
2018-12-26T12:10:58.746Z,9.80
2018-12-26T12:13:27.041Z,10.50
2018-12-26T12:15:55.385Z,9.90
2018-12-26T12:18:23.689Z,9.87
2018-12-26T12:20:52.308Z,9.93
2018-12-26T12:23:20.902Z,13.03
2018-12-26T12:25:49.184Z,10.17
2018-12-26T12:28:17.490Z,10.47
2018-12-26T12:30:45.819Z,10.17
2018-12-26T12:33:14.187Z,10.80
2018-12-26T12:35:42.470Z,10.57
2018-12-26T12:38:11.066Z,9.77
2018-12-26T12:40:39.410Z,8.37
2018-12-26T12:43:07.754Z,11.53
2018-12-26T12:45:36.115Z,12.37
2018-12-26T12:48:04.699Z,10.30
2018-12-26T12:50:33.082Z,9.77
2018-12-26T12:53:01.397Z,9.30
2018-12-26T12:55:29.704Z,8.57
2018-12-26T12:57:57.993Z,9.70
2018-12-26T13:00:26.568Z,9.40
2018-12-26T13:03:00.319Z,9.90
2018-12-26T13:05:25.212Z,10.43
2018-12-26T13:07:53.503Z,8.87
2018-12-26T13:10:23.916Z,10.00
2018-12-26T13:12:52.202Z,9.20
2018-12-26T13:15:22.125Z,8.90
2018-12-26T13:17:50.419Z,8.57
2018-12-26T13:20:18.699Z,8.97
2018-12-26T13:22:47.013Z,8.63
2018-12-26T13:25:15.288Z,8.80
2018-12-26T13:27:43.562Z,9.37
2018-12-26T13:30:11.896Z,9.53
2018-12-26T13:32:40.165Z,8.70
2018-12-26T13:35:08.451Z,8.93
2018-12-26T13:37:43.428Z,8.27
2018-12-26T13:40:11.709Z,8.80
2018-12-26T13:42:40.275Z,9.13
2018-12-26T13:45:08.862Z,8.87
2018-12-26T13:47:37.141Z,7.93
2018-12-26T13:50:06.475Z,8.60
2018-12-26T13:52:34.751Z,8.17
2018-12-26T13:55:03.040Z,8.63
2018-12-26T13:57:31.316Z,8.27
2018-12-26T14:00:02.412Z,9.17
2018-12-26T14:02:29.978Z,8.13
2018-12-26T14:04:58.334Z,8.33
2018-12-26T14:07:27.763Z,7.70
2018-12-26T14:09:56.051Z,7.67
2018-12-26T14:12:24.325Z,8.03
2018-12-26T14:14:52.628Z,8.30
2018-12-26T14:17:20.904Z,6.90
2018-12-26T14:19:49.203Z,8.07
2018-12-26T14:22:17.476Z,7.07
2018-12-26T14:24:46.099Z,7.20
2018-12-26T14:27:14.381Z,7.60
2018-12-26T14:29:42.721Z,8.17
2018-12-26T14:32:10.953Z,8.03
2018-12-26T14:34:39.243Z,6.67
2018-12-26T14:37:07.520Z,6.47
2018-12-26T14:39:35.796Z,7.07
2018-12-26T14:42:04.342Z,7.17
2018-12-26T14:44:32.619Z,7.07
2018-12-26T14:47:00.912Z,8.87
2018-12-26T14:49:29.472Z,7.43
2018-12-26T14:51:57.839Z,8.53
2018-12-26T14:54:26.371Z,8.33
2018-12-26T14:56:54.669Z,8.23
2018-12-26T14:59:23.112Z,9.50
2018-12-26T15:01:51.399Z,8.77
2018-12-26T15:04:19.701Z,9.47
2018-12-26T15:06:48.248Z,8.90
2018-12-26T15:09:16.654Z,8.97
2018-12-26T15:11:44.916Z,9.37
2018-12-26T15:14:13.290Z,8.90
2018-12-26T15:16:41.586Z,10.00
2018-12-26T15:19:17.929Z,10.00
2018-12-26T15:21:46.245Z,9.70
2018-12-26T15:24:14.516Z,10.20
2018-12-26T15:26:42.825Z,9.73
2018-12-26T15:29:11.130Z,10.07
2018-12-26T15:31:39.727Z,10.63
2018-12-26T15:34:08.358Z,12.10
2018-12-26T15:36:36.630Z,10.87
2018-12-26T15:39:07.933Z,10.63
2018-12-26T15:41:36.244Z,11.57
2018-12-26T15:44:04.545Z,12.00
2018-12-26T15:46:32.837Z,11.47
2018-12-26T15:49:01.140Z,12.40
2018-12-26T15:51:29.427Z,11.23
2018-12-26T15:53:57.741Z,11.57
2018-12-26T15:56:26.032Z,11.37
2018-12-26T15:58:54.341Z,11.53
2018-12-26T16:01:22.625Z,11.77
2018-12-26T16:03:50.936Z,11.83
2018-12-26T16:06:19.285Z,11.97
2018-12-26T16:08:47.845Z,11.57
2018-12-26T16:11:16.132Z,11.77
2018-12-26T16:13:44.431Z,12.17
2018-12-26T16:16:12.727Z,11.97
2018-12-26T16:18:41.031Z,12.27
2018-12-26T16:21:09.315Z,11.80
2018-12-26T16:23:37.627Z,13.37
2018-12-26T16:26:05.907Z,13.63
2018-12-26T16:28:34.210Z,13.43
2018-12-26T16:31:02.498Z,13.23
2018-12-26T16:33:31.029Z,14.10
2018-12-26T16:35:59.602Z,13.90
2018-12-26T16:38:27.888Z,13.47
2018-12-26T16:40:56.186Z,14.17
2018-12-26T16:43:30.438Z,14.00
2018-12-26T16:45:58.744Z,15.53
2018-12-26T16:48:28.016Z,15.03
2018-12-26T16:50:56.315Z,15.43
2018-12-26T16:53:24.602Z,15.17
2018-12-26T16:55:52.905Z,14.97
2018-12-26T16:58:21.192Z,16.27
2018-12-26T17:00:54.989Z,14.90
2018-12-26T17:03:19.500Z,14.33
2018-12-26T17:05:48.077Z,15.60
2018-12-26T17:08:16.374Z,22.03
2018-12-26T17:10:44.686Z,16.07
2018-12-26T17:13:13.237Z,14.87
2018-12-26T17:15:41.811Z,16.30
2018-12-26T17:18:10.095Z,15.17
2018-12-26T17:20:38.408Z,16.33
2018-12-26T17:23:06.941Z,17.07
2018-12-26T17:25:35.232Z,16.73
2018-12-26T17:28:03.543Z,16.03
2018-12-26T17:30:31.842Z,15.07
2018-12-26T17:33:00.756Z,15.53
2018-12-26T17:35:29.288Z,16.27
2018-12-26T17:37:57.599Z,14.50
2018-12-26T17:40:26.153Z,15.67
2018-12-26T17:42:54.465Z,15.13
2018-12-26T17:45:23.222Z,15.27
2018-12-26T17:47:51.811Z,16.17
2018-12-26T17:50:40.947Z,14.53
2018-12-26T17:53:13.090Z,15.30
2018-12-26T17:56:02.781Z,15.43
2018-12-26T17:58:37.077Z,15.97
2018-12-26T18:01:12.792Z,14.90
2018-12-26T18:03:38.587Z,15.10
2018-12-26T18:06:07.152Z,14.80
2018-12-26T18:08:35.688Z,15.13
2018-12-26T18:11:06.083Z,14.47
2018-12-26T18:13:34.471Z,15.37
2018-12-26T18:16:02.749Z,16.20
2018-12-26T18:18:31.062Z,15.90
2018-12-26T18:20:59.335Z,15.43
2018-12-26T18:23:27.675Z,14.63
2018-12-26T18:25:56.284Z,15.27
2018-12-26T18:28:24.832Z,15.37
2018-12-26T18:30:53.120Z,15.37
2018-12-26T18:33:21.581Z,14.93
2018-12-26T18:35:49.878Z,16.33
2018-12-26T18:38:18.193Z,16.47
2018-12-26T18:40:46.474Z,15.20
2018-12-26T18:43:14.774Z,15.17
2018-12-26T18:45:43.057Z,16.20
2018-12-26T18:48:11.353Z,14.83
2018-12-26T18:50:39.950Z,14.93
2018-12-26T18:53:08.535Z,15.50
2018-12-26T18:55:37.075Z,15.07
2018-12-26T18:58:05.721Z,14.70
2018-12-26T19:03:07.833Z,17.77
2018-12-26T19:05:36.117Z,14.80
2018-12-26T19:08:04.741Z,15.03
2018-12-26T19:10:33.037Z,14.97
2018-12-26T19:13:01.621Z,13.93
2018-12-26T19:15:29.916Z,14.30
2018-12-26T19:17:58.567Z,15.07
2018-12-26T19:20:26.869Z,15.10
2018-12-26T19:22:55.158Z,15.33
2018-12-26T19:25:23.480Z,14.83
2018-12-26T19:27:51.865Z,14.70
2018-12-26T19:30:20.466Z,15.07
2018-12-26T19:32:48.798Z,16.73
2018-12-26T19:35:17.139Z,14.83
2018-12-26T19:37:45.416Z,14.27
2018-12-26T19:40:13.720Z,16.07
2018-12-26T19:42:41.996Z,15.67
2018-12-26T19:45:10.303Z,14.33
2018-12-26T19:47:38.585Z,14.23
2018-12-26T19:50:09.011Z,14.03
2018-12-26T19:52:37.356Z,15.63
2018-12-26T19:55:08.354Z,15.33
2018-12-26T19:57:36.880Z,14.60
2018-12-26T20:00:07.611Z,14.73
2018-12-26T20:02:36.257Z,14.30
2018-12-26T20:05:05.278Z,15.47
2018-12-26T20:07:33.573Z,13.57
2018-12-26T20:10:01.878Z,14.07
2018-12-26T20:12:30.480Z,13.67
2018-12-26T20:14:58.775Z,15.80
2018-12-26T20:17:27.071Z,14.37
2018-12-26T20:19:55.620Z,12.63
2018-12-26T20:22:24.201Z,13.80
2018-12-26T20:24:52.784Z,13.73
2018-12-26T20:27:21.077Z,14.17
2018-12-26T20:29:49.645Z,16.13
2018-12-26T20:32:18.242Z,14.37
2018-12-26T20:34:46.842Z,14.10
2018-12-26T20:37:15.169Z,15.13
2018-12-26T20:39:43.443Z,14.10
2018-12-26T20:42:12.067Z,15.67
2018-12-26T20:44:40.359Z,14.57
2018-12-26T20:47:09.021Z,15.67
2018-12-26T20:49:37.308Z,15.27
2018-12-26T20:52:05.952Z,17.13
2018-12-26T20:54:34.589Z,15.93
2018-12-26T20:57:02.893Z,15.13
2018-12-26T20:59:31.550Z,15.67
2018-12-26T21:02:05.565Z,15.80
2018-12-26T21:04:29.976Z,16.53
2018-12-26T21:06:58.608Z,17.07
2018-12-26T21:09:27.314Z,16.90
2018-12-26T21:11:55.872Z,16.23
2018-12-26T21:14:24.458Z,16.00
2018-12-26T21:16:55.088Z,16.80
2018-12-26T21:19:23.367Z,14.57
2018-12-26T21:21:51.651Z,15.83
2018-12-26T21:24:19.949Z,16.13
2018-12-26T21:26:48.259Z,16.30
2018-12-26T21:29:16.575Z,18.10
2018-12-26T21:31:45.181Z,18.43
2018-12-26T21:34:13.482Z,17.23
2018-12-26T21:36:41.764Z,18.50
2018-12-26T21:39:10.146Z,18.80
2018-12-26T21:41:38.770Z,18.80
2018-12-26T21:44:07.362Z,19.27
2018-12-26T21:46:35.657Z,19.17
2018-12-26T21:49:04.223Z,17.27
2018-12-26T21:51:32.834Z,18.50
2018-12-26T21:54:01.516Z,17.23
2018-12-26T21:56:29.793Z,16.93
2018-12-26T21:58:58.457Z,17.40
2018-12-26T22:01:26.749Z,18.40
2018-12-26T22:03:55.053Z,18.77
2018-12-26T22:06:23.685Z,18.20
2018-12-26T22:08:51.990Z,18.60
2018-12-26T22:11:20.273Z,18.53
2018-12-26T22:13:48.554Z,20.03
2018-12-26T22:16:16.930Z,17.00
2018-12-26T22:18:45.484Z,17.73
2018-12-26T22:21:13.790Z,18.13
2018-12-26T22:23:42.076Z,15.97
2018-12-26T22:26:10.743Z,17.20
2018-12-26T22:28:39.024Z,17.43
2018-12-26T22:31:07.684Z,16.47
2018-12-26T22:33:35.971Z,17.20
2018-12-26T22:36:04.271Z,18.13
2018-12-26T22:38:32.564Z,17.73
2018-12-26T22:41:00.855Z,17.30
2018-12-26T22:43:29.156Z,17.40
2018-12-26T22:45:57.454Z,17.80
2018-12-26T22:48:25.748Z,17.20
2018-12-26T22:50:54.067Z,16.37
2018-12-26T22:53:22.343Z,16.00
2018-12-26T22:55:50.643Z,16.23
2018-12-26T22:58:18.936Z,15.90
2018-12-26T23:00:47.403Z,16.77
2018-12-26T23:03:15.692Z,15.37
2018-12-26T23:05:43.987Z,15.67
2018-12-26T23:08:12.275Z,15.33
2018-12-26T23:10:40.575Z,16.30
2018-12-26T23:13:08.857Z,16.87
2018-12-26T23:15:37.130Z,16.93
2018-12-26T23:18:05.431Z,17.37
2018-12-26T23:20:33.709Z,17.03
2018-12-26T23:23:02.007Z,16.27
2018-12-26T23:25:32.040Z,16.33
2018-12-26T23:28:00.606Z,17.20
2018-12-26T23:30:28.888Z,15.67
2018-12-26T23:32:57.183Z,15.73
2018-12-26T23:35:25.467Z,17.23
2018-12-26T23:37:53.763Z,18.03
2018-12-26T23:40:22.800Z,16.33
2018-12-26T23:42:51.109Z,17.33
2018-12-26T23:45:19.440Z,17.33
2018-12-26T23:47:47.960Z,15.83
2018-12-26T23:50:16.241Z,16.70
2018-12-26T23:52:44.543Z,14.90
2018-12-26T23:55:12.896Z,17.97
2018-12-26T23:57:41.197Z,16.63
